sensor_id;sensor_type;location;lat;lon;timestamp;P1;durP1;ratioP1;P2;durP2;ratioP2
15192;SDS011;7697;51.630;7.484;2022-10-16T00:00:10;4.22;;;3.00;;
15192;SDS011;7697;51.630;7.484;2022-10-16T00:05:12;4.20;;;2.60;;
15192;SDS011;7697;51.630;7.484;2022-10-16T00:10:15;3.33;;;2.55;;
15192;SDS011;7697;51.630;7.484;2022-10-16T00:15:17;3.90;;;2.55;;
15192;SDS011;7697;51.630;7.484;2022-10-16T00:20:19;3.53;;;2.40;;
15192;SDS011;7697;51.630;7.484;2022-10-16T00:25:22;5.25;;;2.78;;
15192;SDS011;7697;51.630;7.484;2022-10-16T00:30:24;2.95;;;2.40;;
15192;SDS011;7697;51.630;7.484;2022-10-16T00:35:27;3.55;;;2.58;;
15192;SDS011;7697;51.630;7.484;2022-10-16T00:40:30;2.50;;;2.20;;
15192;SDS011;7697;51.630;7.484;2022-10-16T00:45:32;2.72;;;2.10;;
15192;SDS011;7697;51.630;7.484;2022-10-16T00:50:34;4.03;;;2.45;;
15192;SDS011;7697;51.630;7.484;2022-10-16T00:55:37;2.90;;;1.90;;
15192;SDS011;7697;51.630;7.484;2022-10-16T01:00:39;2.72;;;2.20;;
15192;SDS011;7697;51.630;7.484;2022-10-16T01:05:42;2.67;;;2.10;;
15192;SDS011;7697;51.630;7.484;2022-10-16T01:10:54;3.10;;;2.10;;
15192;SDS011;7697;51.630;7.484;2022-10-16T01:16:02;2.13;;;1.77;;
15192;SDS011;7697;51.630;7.484;2022-10-16T01:21:09;4.88;;;3.00;;
15192;SDS011;7697;51.630;7.484;2022-10-16T01:26:18;2.60;;;2.28;;
15192;SDS011;7697;51.630;7.484;2022-10-16T01:31:33;3.00;;;2.53;;
15192;SDS011;7697;51.630;7.484;2022-10-16T01:36:41;3.28;;;2.30;;
15192;SDS011;7697;51.630;7.484;2022-10-16T01:41:47;2.90;;;2.10;;
15192;SDS011;7697;51.630;7.484;2022-10-16T01:46:57;2.95;;;2.05;;
15192;SDS011;7697;51.630;7.484;2022-10-16T01:51:59;8.60;;;2.22;;
15192;SDS011;7697;51.630;7.484;2022-10-16T01:57:06;3.40;;;1.85;;
15192;SDS011;7697;51.630;7.484;2022-10-16T02:02:10;2.15;;;1.95;;
15192;SDS011;7697;51.630;7.484;2022-10-16T02:07:14;2.42;;;1.80;;
15192;SDS011;7697;51.630;7.484;2022-10-16T02:12:18;2.63;;;1.80;;
15192;SDS011;7697;51.630;7.484;2022-10-16T02:17:27;2.28;;;1.80;;
15192;SDS011;7697;51.630;7.484;2022-10-16T02:22:30;1.92;;;1.73;;
15192;SDS011;7697;51.630;7.484;2022-10-16T02:27:38;2.10;;;1.50;;
15192;SDS011;7697;51.630;7.484;2022-10-16T02:32:47;3.55;;;1.70;;
15192;SDS011;7697;51.630;7.484;2022-10-16T02:37:50;2.40;;;1.70;;
15192;SDS011;7697;51.630;7.484;2022-10-16T02:42:53;5.10;;;1.58;;
15192;SDS011;7697;51.630;7.484;2022-10-16T02:47:57;1.95;;;1.48;;
15192;SDS011;7697;51.630;7.484;2022-10-16T02:52:59;1.73;;;1.20;;
15192;SDS011;7697;51.630;7.484;2022-10-16T02:58:01;1.40;;;1.30;;
15192;SDS011;7697;51.630;7.484;2022-10-16T03:03:04;4.03;;;1.40;;
15192;SDS011;7697;51.630;7.484;2022-10-16T03:08:05;1.63;;;1.30;;
15192;SDS011;7697;51.630;7.484;2022-10-16T03:13:07;1.48;;;1.38;;
15192;SDS011;7697;51.630;7.484;2022-10-16T03:18:10;2.42;;;1.50;;
15192;SDS011;7697;51.630;7.484;2022-10-16T03:23:12;1.65;;;1.23;;
15192;SDS011;7697;51.630;7.484;2022-10-16T03:28:13;1.85;;;1.27;;
15192;SDS011;7697;51.630;7.484;2022-10-16T03:33:19;1.40;;;1.30;;
15192;SDS011;7697;51.630;7.484;2022-10-16T03:38:20;3.03;;;1.30;;
15192;SDS011;7697;51.630;7.484;2022-10-16T03:43:22;1.67;;;1.35;;
15192;SDS011;7697;51.630;7.484;2022-10-16T03:48:25;2.85;;;1.23;;
15192;SDS011;7697;51.630;7.484;2022-10-16T03:53:27;1.42;;;1.30;;
15192;SDS011;7697;51.630;7.484;2022-10-16T03:58:29;1.55;;;1.20;;
15192;SDS011;7697;51.630;7.484;2022-10-16T04:03:32;2.40;;;1.40;;
15192;SDS011;7697;51.630;7.484;2022-10-16T04:08:34;1.30;;;1.20;;
15192;SDS011;7697;51.630;7.484;2022-10-16T04:13:36;1.98;;;1.38;;
15192;SDS011;7697;51.630;7.484;2022-10-16T04:18:39;1.40;;;1.30;;
15192;SDS011;7697;51.630;7.484;2022-10-16T04:23:41;1.73;;;1.40;;
15192;SDS011;7697;51.630;7.484;2022-10-16T04:28:43;1.75;;;1.52;;
15192;SDS011;7697;51.630;7.484;2022-10-16T04:33:46;1.50;;;1.20;;
15192;SDS011;7697;51.630;7.484;2022-10-16T04:38:48;1.33;;;1.10;;
15192;SDS011;7697;51.630;7.484;2022-10-16T04:43:49;1.88;;;1.25;;
15192;SDS011;7697;51.630;7.484;2022-10-16T04:48:52;1.45;;;1.23;;
15192;SDS011;7697;51.630;7.484;2022-10-16T04:53:54;2.70;;;1.20;;
15192;SDS011;7697;51.630;7.484;2022-10-16T04:58:56;1.60;;;1.38;;
15192;SDS011;7697;51.630;7.484;2022-10-16T05:03:59;1.15;;;1.05;;
15192;SDS011;7697;51.630;7.484;2022-10-16T05:09:01;1.88;;;1.50;;
15192;SDS011;7697;51.630;7.484;2022-10-16T05:14:03;1.30;;;1.13;;
15192;SDS011;7697;51.630;7.484;2022-10-16T05:19:06;1.27;;;1.17;;
15192;SDS011;7697;51.630;7.484;2022-10-16T05:24:08;1.38;;;1.17;;
15192;SDS011;7697;51.630;7.484;2022-10-16T05:29:10;1.50;;;1.40;;
15192;SDS011;7697;51.630;7.484;2022-10-16T05:34:13;1.63;;;1.30;;
15192;SDS011;7697;51.630;7.484;2022-10-16T05:39:15;1.40;;;1.30;;
15192;SDS011;7697;51.630;7.484;2022-10-16T05:44:17;1.67;;;1.20;;
15192;SDS011;7697;51.630;7.484;2022-10-16T05:49:20;1.50;;;1.30;;
15192;SDS011;7697;51.630;7.484;2022-10-16T05:54:22;2.63;;;1.27;;
15192;SDS011;7697;51.630;7.484;2022-10-16T05:59:23;1.38;;;1.27;;
15192;SDS011;7697;51.630;7.484;2022-10-16T06:04:26;2.00;;;1.48;;
15192;SDS011;7697;51.630;7.484;2022-10-16T06:09:28;1.30;;;1.20;;
15192;SDS011;7697;51.630;7.484;2022-10-16T06:14:30;2.33;;;1.30;;
15192;SDS011;7697;51.630;7.484;2022-10-16T06:19:33;1.33;;;1.23;;
15192;SDS011;7697;51.630;7.484;2022-10-16T06:24:35;1.65;;;1.23;;
15192;SDS011;7697;51.630;7.484;2022-10-16T06:29:36;1.25;;;1.15;;
15192;SDS011;7697;51.630;7.484;2022-10-16T06:34:39;1.58;;;1.10;;
15192;SDS011;7697;51.630;7.484;2022-10-16T06:39:41;1.60;;;1.40;;
15192;SDS011;7697;51.630;7.484;2022-10-16T06:44:42;1.40;;;1.20;;
15192;SDS011;7697;51.630;7.484;2022-10-16T06:49:46;1.70;;;1.50;;
15192;SDS011;7697;51.630;7.484;2022-10-16T06:54:47;3.15;;;1.40;;
15192;SDS011;7697;51.630;7.484;2022-10-16T06:59:49;1.42;;;1.23;;
15192;SDS011;7697;51.630;7.484;2022-10-16T07:04:52;1.30;;;1.20;;
15192;SDS011;7697;51.630;7.484;2022-10-16T07:09:53;1.75;;;1.40;;
15192;SDS011;7697;51.630;7.484;2022-10-16T07:14:55;2.60;;;1.27;;
15192;SDS011;7697;51.630;7.484;2022-10-16T07:19:58;2.13;;;1.65;;
15192;SDS011;7697;51.630;7.484;2022-10-16T07:25:00;1.90;;;1.60;;
15192;SDS011;7697;51.630;7.484;2022-10-16T07:30:02;2.47;;;1.50;;
15192;SDS011;7697;51.630;7.484;2022-10-16T07:35:06;1.60;;;1.40;;
15192;SDS011;7697;51.630;7.484;2022-10-16T07:40:08;1.70;;;1.50;;
15192;SDS011;7697;51.630;7.484;2022-10-16T07:45:10;3.17;;;1.70;;
15192;SDS011;7697;51.630;7.484;2022-10-16T07:50:13;2.85;;;2.05;;
15192;SDS011;7697;51.630;7.484;2022-10-16T07:55:15;2.25;;;2.00;;
15192;SDS011;7697;51.630;7.484;2022-10-16T08:00:17;2.63;;;2.25;;
15192;SDS011;7697;51.630;7.484;2022-10-16T08:05:20;3.95;;;2.15;;
15192;SDS011;7697;51.630;7.484;2022-10-16T08:10:22;6.00;;;2.22;;
15192;SDS011;7697;51.630;7.484;2022-10-16T08:15:25;1.75;;;1.60;;
15192;SDS011;7697;51.630;7.484;2022-10-16T08:20:29;2.83;;;1.70;;
15192;SDS011;7697;51.630;7.484;2022-10-16T08:25:33;2.03;;;1.70;;
15192;SDS011;7697;51.630;7.484;2022-10-16T08:30:36;3.58;;;1.65;;
15192;SDS011;7697;51.630;7.484;2022-10-16T08:35:39;2.55;;;1.50;;
15192;SDS011;7697;51.630;7.484;2022-10-16T08:40:41;2.53;;;1.45;;
15192;SDS011;7697;51.630;7.484;2022-10-16T08:45:46;2.83;;;1.50;;
15192;SDS011;7697;51.630;7.484;2022-10-16T08:51:02;3.08;;;1.73;;
15192;SDS011;7697;51.630;7.484;2022-10-16T08:56:06;2.42;;;1.58;;
15192;SDS011;7697;51.630;7.484;2022-10-16T09:01:10;2.92;;;1.48;;
15192;SDS011;7697;51.630;7.484;2022-10-16T09:06:30;2.03;;;1.40;;
15192;SDS011;7697;51.630;7.484;2022-10-16T09:11:45;2.15;;;1.20;;
15192;SDS011;7697;51.630;7.484;2022-10-16T09:16:55;2.70;;;1.15;;
15192;SDS011;7697;51.630;7.484;2022-10-16T09:22:04;2.00;;;1.10;;
15192;SDS011;7697;51.630;7.484;2022-10-16T09:27:14;1.92;;;1.38;;
15192;SDS011;7697;51.630;7.484;2022-10-16T09:32:18;1.80;;;1.25;;
15192;SDS011;7697;51.630;7.484;2022-10-16T09:37:23;2.63;;;1.25;;
15192;SDS011;7697;51.630;7.484;2022-10-16T09:42:27;2.05;;;1.35;;
15192;SDS011;7697;51.630;7.484;2022-10-16T09:47:35;2.50;;;1.20;;
15192;SDS011;7697;51.630;7.484;2022-10-16T09:52:45;3.22;;;1.08;;
15192;SDS011;7697;51.630;7.484;2022-10-16T09:57:50;6.78;;;1.58;;
15192;SDS011;7697;51.630;7.484;2022-10-16T10:02:52;3.55;;;1.40;;
15192;SDS011;7697;51.630;7.484;2022-10-16T10:07:57;1.83;;;1.05;;
15192;SDS011;7697;51.630;7.484;2022-10-16T10:13:00;1.20;;;1.05;;
15192;SDS011;7697;51.630;7.484;2022-10-16T10:18:02;2.97;;;1.23;;
15192;SDS011;7697;51.630;7.484;2022-10-16T10:23:21;1.73;;;1.10;;
15192;SDS011;7697;51.630;7.484;2022-10-16T10:28:32;4.43;;;1.30;;
15192;SDS011;7697;51.630;7.484;2022-10-16T10:33:50;1.55;;;1.08;;
15192;SDS011;7697;51.630;7.484;2022-10-16T10:39:00;2.13;;;1.10;;
15192;SDS011;7697;51.630;7.484;2022-10-16T10:44:08;3.00;;;1.33;;
15192;SDS011;7697;51.630;7.484;2022-10-16T10:49:24;2.63;;;1.20;;
15192;SDS011;7697;51.630;7.484;2022-10-16T10:54:41;1.35;;;1.05;;
15192;SDS011;7697;51.630;7.484;2022-10-16T11:00:03;1.92;;;0.90;;
15192;SDS011;7697;51.630;7.484;2022-10-16T11:05:28;1.80;;;1.00;;
15192;SDS011;7697;51.630;7.484;2022-10-16T11:10:40;4.20;;;1.10;;
15192;SDS011;7697;51.630;7.484;2022-10-16T11:15:47;1.52;;;0.80;;
15192;SDS011;7697;51.630;7.484;2022-10-16T11:21:08;1.20;;;1.00;;
15192;SDS011;7697;51.630;7.484;2022-10-16T11:26:16;1.83;;;1.08;;
15192;SDS011;7697;51.630;7.484;2022-10-16T11:31:23;2.72;;;0.95;;
15192;SDS011;7697;51.630;7.484;2022-10-16T11:36:33;2.30;;;1.17;;
15192;SDS011;7697;51.630;7.484;2022-10-16T11:41:41;2.92;;;1.33;;
15192;SDS011;7697;51.630;7.484;2022-10-16T11:46:50;1.38;;;0.98;;
15192;SDS011;7697;51.630;7.484;2022-10-16T11:52:02;1.20;;;1.10;;
15192;SDS011;7697;51.630;7.484;2022-10-16T11:57:13;1.55;;;1.10;;
15192;SDS011;7697;51.630;7.484;2022-10-16T12:02:26;2.53;;;1.30;;
15192;SDS011;7697;51.630;7.484;2022-10-16T12:07:36;4.15;;;1.70;;
15192;SDS011;7697;51.630;7.484;2022-10-16T12:12:44;1.63;;;1.10;;
15192;SDS011;7697;51.630;7.484;2022-10-16T12:17:46;1.50;;;1.00;;
15192;SDS011;7697;51.630;7.484;2022-10-16T12:22:50;1.55;;;1.08;;
15192;SDS011;7697;51.630;7.484;2022-10-16T12:28:01;1.52;;;1.10;;
15192;SDS011;7697;51.630;7.484;2022-10-16T12:33:06;1.65;;;1.20;;
15192;SDS011;7697;51.630;7.484;2022-10-16T12:38:26;2.50;;;1.20;;
15192;SDS011;7697;51.630;7.484;2022-10-16T12:43:36;2.17;;;1.13;;
15192;SDS011;7697;51.630;7.484;2022-10-16T12:48:42;1.73;;;1.20;;
15192;SDS011;7697;51.630;7.484;2022-10-16T12:53:57;2.65;;;1.20;;
15192;SDS011;7697;51.630;7.484;2022-10-16T12:59:02;2.90;;;1.10;;
15192;SDS011;7697;51.630;7.484;2022-10-16T13:04:27;2.25;;;1.17;;
15192;SDS011;7697;51.630;7.484;2022-10-16T13:09:43;2.40;;;1.10;;
15192;SDS011;7697;51.630;7.484;2022-10-16T13:15:11;2.35;;;1.00;;
15192;SDS011;7697;51.630;7.484;2022-10-16T13:20:23;2.05;;;1.13;;
15192;SDS011;7697;51.630;7.484;2022-10-16T13:25:37;1.65;;;0.95;;
15192;SDS011;7697;51.630;7.484;2022-10-16T13:30:51;1.70;;;1.00;;
15192;SDS011;7697;51.630;7.484;2022-10-16T13:35:55;1.20;;;1.10;;
15192;SDS011;7697;51.630;7.484;2022-10-16T13:40:59;0.93;;;0.80;;
15192;SDS011;7697;51.630;7.484;2022-10-16T13:46:03;1.95;;;0.73;;
15192;SDS011;7697;51.630;7.484;2022-10-16T13:51:10;1.50;;;1.00;;
15192;SDS011;7697;51.630;7.484;2022-10-16T13:56:16;3.50;;;1.02;;
15192;SDS011;7697;51.630;7.484;2022-10-16T14:01:20;1.90;;;0.95;;
15192;SDS011;7697;51.630;7.484;2022-10-16T14:06:26;1.95;;;1.10;;
15192;SDS011;7697;51.630;7.484;2022-10-16T14:11:29;1.75;;;0.82;;
15192;SDS011;7697;51.630;7.484;2022-10-16T14:16:31;2.55;;;1.20;;
15192;SDS011;7697;51.630;7.484;2022-10-16T14:21:33;1.55;;;1.00;;
15192;SDS011;7697;51.630;7.484;2022-10-16T14:26:41;1.33;;;0.90;;
15192;SDS011;7697;51.630;7.484;2022-10-16T14:31:53;2.72;;;1.05;;
15192;SDS011;7697;51.630;7.484;2022-10-16T14:36:56;2.45;;;1.30;;
15192;SDS011;7697;51.630;7.484;2022-10-16T14:42:02;1.30;;;0.90;;
15192;SDS011;7697;51.630;7.484;2022-10-16T14:47:07;2.72;;;1.20;;
15192;SDS011;7697;51.630;7.484;2022-10-16T14:52:13;2.75;;;1.08;;
15192;SDS011;7697;51.630;7.484;2022-10-16T14:57:17;1.48;;;0.98;;
15192;SDS011;7697;51.630;7.484;2022-10-16T15:02:22;1.23;;;0.80;;
15192;SDS011;7697;51.630;7.484;2022-10-16T15:07:28;2.15;;;1.13;;
15192;SDS011;7697;51.630;7.484;2022-10-16T15:12:31;1.40;;;0.90;;
15192;SDS011;7697;51.630;7.484;2022-10-16T15:17:32;1.45;;;1.17;;
15192;SDS011;7697;51.630;7.484;2022-10-16T15:22:34;2.42;;;1.30;;
15192;SDS011;7697;51.630;7.484;2022-10-16T15:27:37;1.85;;;0.98;;
15192;SDS011;7697;51.630;7.484;2022-10-16T15:32:40;2.35;;;1.00;;
15192;SDS011;7697;51.630;7.484;2022-10-16T15:37:41;4.97;;;1.27;;
15192;SDS011;7697;51.630;7.484;2022-10-16T15:42:45;2.42;;;1.13;;
15192;SDS011;7697;51.630;7.484;2022-10-16T15:47:47;3.10;;;1.23;;
15192;SDS011;7697;51.630;7.484;2022-10-16T15:52:49;1.00;;;0.88;;
15192;SDS011;7697;51.630;7.484;2022-10-16T15:57:52;3.38;;;1.10;;
15192;SDS011;7697;51.630;7.484;2022-10-16T16:02:55;1.67;;;1.00;;
15192;SDS011;7697;51.630;7.484;2022-10-16T16:07:57;1.77;;;1.15;;
15192;SDS011;7697;51.630;7.484;2022-10-16T16:13:00;3.65;;;1.15;;
15192;SDS011;7697;51.630;7.484;2022-10-16T16:18:02;1.67;;;1.05;;
15192;SDS011;7697;51.630;7.484;2022-10-16T16:23:05;2.83;;;1.40;;
15192;SDS011;7697;51.630;7.484;2022-10-16T16:28:08;2.67;;;1.65;;
15192;SDS011;7697;51.630;7.484;2022-10-16T16:33:14;3.25;;;1.60;;
15192;SDS011;7697;51.630;7.484;2022-10-16T16:38:15;2.67;;;1.55;;
15192;SDS011;7697;51.630;7.484;2022-10-16T16:43:18;3.00;;;1.80;;
15192;SDS011;7697;51.630;7.484;2022-10-16T16:48:20;3.67;;;2.05;;
15192;SDS011;7697;51.630;7.484;2022-10-16T16:53:23;2.90;;;2.13;;
15192;SDS011;7697;51.630;7.484;2022-10-16T16:58:26;2.53;;;2.33;;
15192;SDS011;7697;51.630;7.484;2022-10-16T17:03:27;3.25;;;2.00;;
15192;SDS011;7697;51.630;7.484;2022-10-16T17:08:29;3.38;;;1.90;;
15192;SDS011;7697;51.630;7.484;2022-10-16T17:13:33;2.40;;;1.52;;
15192;SDS011;7697;51.630;7.484;2022-10-16T17:18:37;1.70;;;1.50;;
15192;SDS011;7697;51.630;7.484;2022-10-16T17:23:39;3.25;;;1.70;;
15192;SDS011;7697;51.630;7.484;2022-10-16T17:28:42;3.60;;;2.28;;
15192;SDS011;7697;51.630;7.484;2022-10-16T17:33:44;3.92;;;1.80;;
15192;SDS011;7697;51.630;7.484;2022-10-16T17:38:46;3.08;;;2.05;;
15192;SDS011;7697;51.630;7.484;2022-10-16T17:43:50;4.35;;;3.22;;
15192;SDS011;7697;51.630;7.484;2022-10-16T17:48:53;3.95;;;3.00;;
15192;SDS011;7697;51.630;7.484;2022-10-16T17:53:56;4.43;;;3.15;;
15192;SDS011;7697;51.630;7.484;2022-10-16T17:59:00;3.97;;;2.70;;
15192;SDS011;7697;51.630;7.484;2022-10-16T18:04:03;2.67;;;2.38;;
15192;SDS011;7697;51.630;7.484;2022-10-16T18:09:06;2.75;;;2.40;;
15192;SDS011;7697;51.630;7.484;2022-10-16T18:14:11;2.72;;;2.42;;
15192;SDS011;7697;51.630;7.484;2022-10-16T18:19:13;2.85;;;2.55;;
15192;SDS011;7697;51.630;7.484;2022-10-16T18:24:15;6.47;;;3.50;;
15192;SDS011;7697;51.630;7.484;2022-10-16T18:29:19;4.40;;;3.67;;
15192;SDS011;7697;51.630;7.484;2022-10-16T18:34:21;2.63;;;2.40;;
15192;SDS011;7697;51.630;7.484;2022-10-16T18:39:23;4.80;;;4.10;;
15192;SDS011;7697;51.630;7.484;2022-10-16T18:44:26;4.68;;;3.20;;
15192;SDS011;7697;51.630;7.484;2022-10-16T18:49:30;2.70;;;2.30;;
15192;SDS011;7697;51.630;7.484;2022-10-16T18:54:31;2.72;;;1.90;;
15192;SDS011;7697;51.630;7.484;2022-10-16T18:59:36;4.93;;;2.05;;
15192;SDS011;7697;51.630;7.484;2022-10-16T19:04:39;2.38;;;1.83;;
15192;SDS011;7697;51.630;7.484;2022-10-16T19:09:40;4.63;;;2.17;;
15192;SDS011;7697;51.630;7.484;2022-10-16T19:14:43;2.53;;;1.85;;
15192;SDS011;7697;51.630;7.484;2022-10-16T19:19:48;3.33;;;2.00;;
15192;SDS011;7697;51.630;7.484;2022-10-16T19:24:50;1.95;;;1.75;;
15192;SDS011;7697;51.630;7.484;2022-10-16T19:29:53;3.05;;;2.45;;
15192;SDS011;7697;51.630;7.484;2022-10-16T19:34:54;4.43;;;1.85;;
15192;SDS011;7697;51.630;7.484;2022-10-16T19:39:56;2.55;;;2.00;;
15192;SDS011;7697;51.630;7.484;2022-10-16T19:44:59;2.53;;;1.92;;
15192;SDS011;7697;51.630;7.484;2022-10-16T19:50:00;2.65;;;1.92;;
15192;SDS011;7697;51.630;7.484;2022-10-16T19:55:03;2.58;;;2.00;;
15192;SDS011;7697;51.630;7.484;2022-10-16T20:00:07;3.00;;;1.92;;
15192;SDS011;7697;51.630;7.484;2022-10-16T20:05:09;3.22;;;2.10;;
15192;SDS011;7697;51.630;7.484;2022-10-16T20:10:11;3.28;;;2.83;;
15192;SDS011;7697;51.630;7.484;2022-10-16T20:15:14;2.80;;;2.40;;
15192;SDS011;7697;51.630;7.484;2022-10-16T20:20:16;4.13;;;2.75;;
15192;SDS011;7697;51.630;7.484;2022-10-16T20:25:18;2.78;;;2.28;;
15192;SDS011;7697;51.630;7.484;2022-10-16T20:30:21;3.15;;;2.70;;
15192;SDS011;7697;51.630;7.484;2022-10-16T20:35:23;3.50;;;3.20;;
15192;SDS011;7697;51.630;7.484;2022-10-16T20:40:24;5.32;;;3.70;;
15192;SDS011;7697;51.630;7.484;2022-10-16T20:45:28;3.50;;;3.20;;
15192;SDS011;7697;51.630;7.484;2022-10-16T20:50:30;5.28;;;3.00;;
15192;SDS011;7697;51.630;7.484;2022-10-16T20:55:33;4.03;;;2.83;;
15192;SDS011;7697;51.630;7.484;2022-10-16T21:00:37;4.15;;;2.55;;
15192;SDS011;7697;51.630;7.484;2022-10-16T21:05:39;4.35;;;2.50;;
15192;SDS011;7697;51.630;7.484;2022-10-16T21:10:41;4.53;;;2.78;;
15192;SDS011;7697;51.630;7.484;2022-10-16T21:15:44;3.13;;;2.30;;
15192;SDS011;7697;51.630;7.484;2022-10-16T21:20:45;2.95;;;2.60;;
15192;SDS011;7697;51.630;7.484;2022-10-16T21:25:47;3.58;;;2.50;;
15192;SDS011;7697;51.630;7.484;2022-10-16T21:30:51;5.97;;;3.25;;
15192;SDS011;7697;51.630;7.484;2022-10-16T21:35:52;3.38;;;2.97;;
15192;SDS011;7697;51.630;7.484;2022-10-16T21:40:54;4.35;;;3.10;;
15192;SDS011;7697;51.630;7.484;2022-10-16T21:45:57;4.78;;;3.00;;
15192;SDS011;7697;51.630;7.484;2022-10-16T21:50:59;3.50;;;2.70;;
15192;SDS011;7697;51.630;7.484;2022-10-16T21:56:00;5.78;;;2.67;;
15192;SDS011;7697;51.630;7.484;2022-10-16T22:01:06;2.95;;;2.58;;
15192;SDS011;7697;51.630;7.484;2022-10-16T22:06:09;2.88;;;2.45;;
15192;SDS011;7697;51.630;7.484;2022-10-16T22:11:12;3.00;;;2.45;;
15192;SDS011;7697;51.630;7.484;2022-10-16T22:16:19;2.90;;;2.50;;
15192;SDS011;7697;51.630;7.484;2022-10-16T22:21:21;4.22;;;2.90;;
15192;SDS011;7697;51.630;7.484;2022-10-16T22:26:24;2.70;;;2.50;;
15192;SDS011;7697;51.630;7.484;2022-10-16T22:31:27;2.97;;;2.50;;
15192;SDS011;7697;51.630;7.484;2022-10-16T22:36:29;2.85;;;2.30;;
15192;SDS011;7697;51.630;7.484;2022-10-16T22:41:31;3.53;;;2.33;;
15192;SDS011;7697;51.630;7.484;2022-10-16T22:46:34;2.60;;;2.40;;
15192;SDS011;7697;51.630;7.484;2022-10-16T22:51:36;3.03;;;2.63;;
15192;SDS011;7697;51.630;7.484;2022-10-16T22:56:37;3.72;;;3.33;;
15192;SDS011;7697;51.630;7.484;2022-10-16T23:01:40;3.45;;;3.15;;
15192;SDS011;7697;51.630;7.484;2022-10-16T23:06:42;4.60;;;3.45;;
15192;SDS011;7697;51.630;7.484;2022-10-16T23:11:44;4.30;;;3.90;;
15192;SDS011;7697;51.630;7.484;2022-10-16T23:16:47;4.57;;;3.95;;
15192;SDS011;7697;51.630;7.484;2022-10-16T23:21:49;6.07;;;4.70;;
15192;SDS011;7697;51.630;7.484;2022-10-16T23:26:51;5.78;;;4.63;;
15192;SDS011;7697;51.630;7.484;2022-10-16T23:31:54;4.03;;;3.55;;
15192;SDS011;7697;51.630;7.484;2022-10-16T23:36:56;4.47;;;3.80;;
15192;SDS011;7697;51.630;7.484;2022-10-16T23:41:57;4.03;;;3.58;;
15192;SDS011;7697;51.630;7.484;2022-10-16T23:47:00;4.20;;;3.28;;
15192;SDS011;7697;51.630;7.484;2022-10-16T23:52:03;4.40;;;3.15;;
15192;SDS011;7697;51.630;7.484;2022-10-16T23:57:04;4.40;;;3.28;;
